TimeMST,TemperatureF,Dew PointF,Humidity,Sea Level PressureIn,VisibilityMPH,Wind Direction,Wind SpeedMPH,Gust SpeedMPH,PrecipitationIn,Events,Conditions,WindDirDegrees,DateUTC
12:54 AM,3.9,-0.9,80,30.32,10.0,WSW,18.4,-,N/A,,Clear,240,2013-01-01 07:54:00
1:54 AM,3.9,-0.9,80,30.34,10.0,WSW,12.7,-,N/A,,Clear,240,2013-01-01 08:54:00
2:54 AM,3.9,-2.0,76,30.36,10.0,WSW,13.8,-,N/A,,Clear,250,2013-01-01 09:54:00
4:54 AM,3.9,-0.9,80,30.41,10.0,WSW,10.4,-,N/A,,Overcast,250,2013-01-01 11:54:00
5:54 AM,3.9,-0.0,84,30.42,10.0,SW,11.5,-,N/A,,Overcast,230,2013-01-01 12:54:00
6:54 AM,3.0,-2.0,80,30.43,10.0,WSW,13.8,-,N/A,,Scattered Clouds,240,2013-01-01 13:54:00
7:54 AM,3.0,-2.0,80,30.46,10.0,WSW,15.0,-,N/A,,Partly Cloudy,240,2013-01-01 14:54:00
8:54 AM,3.9,-0.9,80,30.47,10.0,WSW,11.5,-,N/A,,Clear,240,2013-01-01 15:54:00
9:54 AM,7.0,1.0,77,30.47,10.0,SW,9.2,-,N/A,,Clear,230,2013-01-01 16:54:00
10:54 AM,10.9,3.0,70,30.45,10.0,West,10.4,-,N/A,,Clear,270,2013-01-01 17:54:00
11:54 AM,12.9,5.0,71,30.42,10.0,West,17.3,-,N/A,,Clear,260,2013-01-01 18:54:00
12:54 PM,14.0,5.0,67,30.42,10.0,WSW,20.7,-,N/A,,Clear,250,2013-01-01 19:54:00
1:54 PM,15.1,6.1,68,30.40,10.0,West,20.7,-,N/A,,Clear,270,2013-01-01 20:54:00
2:54 PM,16.0,8.1,71,30.37,10.0,WSW,18.4,-,N/A,,Clear,240,2013-01-01 21:54:00
3:54 PM,16.0,8.1,71,30.35,10.0,WSW,23.0,29.9,N/A,,Clear,240,2013-01-01 22:54:00
4:54 PM,12.9,7.0,77,30.36,10.0,West,21.9,-,N/A,,Clear,260,2013-01-01 23:54:00
5:54 PM,14.0,7.0,74,30.38,10.0,WSW,20.7,-,N/A,,Partly Cloudy,250,2013-01-02 00:54:00
7:54 PM,14.0,7.0,74,30.43,10.0,West,12.7,-,N/A,,Overcast,270,2013-01-02 02:54:00
8:54 PM,14.0,8.1,77,30.45,10.0,West,11.5,-,N/A,,Overcast,260,2013-01-02 03:54:00
9:54 PM,14.0,8.1,77,30.45,10.0,WSW,15.0,-,N/A,,Overcast,250,2013-01-02 04:54:00
10:54 PM,12.9,7.0,77,30.45,10.0,WSW,10.4,-,N/A,,Overcast,240,2013-01-02 05:54:00
11:54 PM,12.9,7.0,77,30.43,10.0,WSW,10.4,-,N/A,,Overcast,250,2013-01-02 06:54:00